Time;durP1;ratioP1;P1;durP2;ratioP2;P2;SDS_P1;SDS_P2;PMS_P1;PMS_P2;Temp;Humidity;BMP_temperature;BMP_pressure;BME280_temperature;BME280_humidity;BME280_pressure;Samples;Min_cycle;Max_cycle;Signal;HPM_P1;HPM_P2
2022/09/04 00:02:38;;;;;;;6.70;6.20;;;16.90;99.90;;;;;;5046251;28;20657;-81
2022/09/04 00:05:14;;;;;;;10.87;6.20;;;16.90;99.90;;;;;;5045087;28;20641;-80
2022/09/04 00:07:51;;;;;;;88.73;10.73;;;17.00;99.90;;;;;;5042208;28;20628;-81
2022/09/04 00:10:22;;;;;;;6.90;6.30;;;17.00;99.90;;;;;;5045846;28;20634;-80
2022/09/04 00:12:56;;;;;;;13.63;6.40;;;17.00;99.90;;;;;;5045098;28;20617;-80
2022/09/04 00:15:35;;;;;;;7.27;6.80;;;16.90;99.90;;;;;;5044235;28;20647;-80
2022/09/04 00:18:08;;;;;;;8.47;6.60;;;16.90;99.90;;;;;;5044653;28;20672;-81
2022/09/04 00:20:41;;;;;;;17.83;8.17;;;17.00;99.90;;;;;;5045410;28;20682;-80
2022/09/04 00:23:18;;;;;;;8.47;6.80;;;17.00;99.90;;;;;;5046944;28;20626;-80
2022/09/04 00:25:53;;;;;;;12.70;7.53;;;17.00;99.90;;;;;;5044995;28;20625;-80
2022/09/04 00:28:31;;;;;;;7.70;7.10;;;16.90;99.90;;;;;;5041871;28;21004;-81
2022/09/04 00:31:13;;;;;;;7.60;7.00;;;16.90;99.90;;;;;;5046019;28;20662;-81
2022/09/04 00:33:48;;;;;;;8.37;7.67;;;16.90;99.90;;;;;;5045263;28;21168;-81
2022/09/04 00:36:17;;;;;;;11.63;7.60;;;16.80;99.90;;;;;;5045908;28;20621;-81
2022/09/04 00:38:47;;;;;;;7.23;6.53;;;16.80;99.90;;;;;;5045491;28;20669;-81
2022/09/04 00:41:26;;;;;;;7.60;7.10;;;16.90;99.90;;;;;;5045093;28;21216;-81
2022/09/04 00:44:27;;;;;;;7.83;7.00;;;16.80;99.90;;;;;;5043831;28;20621;-81
2022/09/04 00:47:22;;;;;;;7.50;6.80;;;16.80;99.90;;;;;;5035949;28;20641;-81
2022/09/04 00:50:20;;;;;;;6.87;6.37;;;16.80;99.90;;;;;;5046663;28;20625;-81
2022/09/04 00:53:08;;;;;;;7.83;7.20;;;16.80;99.90;;;;;;5037654;28;21169;-81
2022/09/04 00:55:49;;;;;;;7.80;7.20;;;16.80;99.90;;;;;;5048259;28;20635;-80
2022/09/04 00:58:30;;;;;;;7.00;6.50;;;16.80;99.90;;;;;;5046186;28;20645;-80
2022/09/04 01:00:59;;;;;;;6.50;6.00;;;16.70;99.90;;;;;;5049275;28;20659;-80
2022/09/04 01:03:55;;;;;;;18.40;7.67;;;16.70;99.90;;;;;;5049134;28;20669;-80
2022/09/04 01:06:31;;;;;;;7.30;6.60;;;16.60;99.90;;;;;;5045343;28;20754;-81
2022/09/04 01:09:32;;;;;;;8.57;7.87;;;16.60;99.90;;;;;;5048901;28;20608;-80
2022/09/04 01:12:12;;;;;;;8.53;7.83;;;16.70;99.90;;;;;;5030357;28;20653;-80
2022/09/04 01:14:43;;;;;;;8.10;7.30;;;16.60;99.90;;;;;;5047006;28;20624;-80
2022/09/04 01:17:18;;;;;;;7.90;7.30;;;16.60;99.90;;;;;;5045431;28;21389;-81
2022/09/04 01:19:55;;;;;;;8.83;7.70;;;16.60;99.90;;;;;;5044904;28;20645;-80
2022/09/04 01:22:40;;;;;;;8.53;7.33;;;16.60;99.90;;;;;;5048110;28;20657;-80
2022/09/04 01:25:19;;;;;;;7.97;7.27;;;16.60;99.90;;;;;;5048389;28;20636;-80
2022/09/04 01:27:54;;;;;;;7.67;6.97;;;16.50;99.90;;;;;;5047112;28;20621;-80
2022/09/04 01:30:22;;;;;;;7.63;7.10;;;16.50;99.90;;;;;;5033051;28;20633;-80
2022/09/04 01:33:04;;;;;;;8.10;7.50;;;16.50;99.90;;;;;;5047784;28;20639;-80
2022/09/04 01:35:37;;;;;;;7.70;7.00;;;16.50;99.90;;;;;;5047801;28;20631;-80
2022/09/04 01:38:11;;;;;;;7.37;6.77;;;16.50;99.90;;;;;;5048071;28;21191;-80
2022/09/04 01:40:44;;;;;;;8.07;7.27;;;16.50;99.90;;;;;;5047453;28;20652;-80
2022/09/04 01:43:16;;;;;;;6.83;6.30;;;16.50;99.90;;;;;;5048626;28;20614;-80
2022/09/04 01:45:55;;;;;;;8.90;8.20;;;16.40;99.90;;;;;;5044085;28;21592;-80
2022/09/04 01:48:31;;;;;;;8.40;7.70;;;16.50;99.90;;;;;;5049587;28;20629;-80
2022/09/04 01:51:05;;;;;;;8.23;7.63;;;16.40;99.90;;;;;;5048895;28;20642;-80
2022/09/04 01:53:38;;;;;;;7.30;6.70;;;16.40;99.90;;;;;;5047639;28;20626;-80
2022/09/04 01:56:14;;;;;;;7.37;6.83;;;16.40;99.90;;;;;;5047672;28;20984;-80
2022/09/04 01:58:50;;;;;;;8.23;7.63;;;16.30;99.90;;;;;;5046806;28;21267;-80
2022/09/04 02:01:26;;;;;;;7.13;6.50;;;16.30;99.90;;;;;;5045067;28;20649;-80
2022/09/04 02:04:00;;;;;;;8.90;8.10;;;16.30;99.90;;;;;;5048303;28;20633;-80
2022/09/04 02:06:33;;;;;;;11.40;7.80;;;16.30;99.90;;;;;;5047021;28;21240;-80
2022/09/04 02:09:19;;;;;;;10.03;8.63;;;16.20;99.90;;;;;;5048052;28;20613;-80
2022/09/04 02:11:52;;;;;;;13.87;9.10;;;16.20;99.90;;;;;;5044232;28;20660;-80
2022/09/04 02:14:33;;;;;;;9.57;8.87;;;16.20;99.90;;;;;;5045346;28;20729;-80
2022/09/04 02:17:09;;;;;;;8.70;8.00;;;16.20;99.90;;;;;;5047326;28;20625;-80
2022/09/04 02:20:01;;;;;;;10.90;8.13;;;16.20;99.90;;;;;;5047192;28;20907;-80
2022/09/04 02:22:40;;;;;;;9.20;8.40;;;16.20;99.90;;;;;;5046883;28;20665;-80
2022/09/04 02:25:20;;;;;;;14.90;9.13;;;16.20;99.90;;;;;;5046940;28;20641;-80
2022/09/04 02:27:56;;;;;;;72.77;11.43;;;16.20;99.90;;;;;;5046055;28;20997;-80
2022/09/04 02:30:24;;;;;;;8.93;7.50;;;16.10;99.90;;;;;;5046587;28;21623;-80
2022/09/04 02:32:59;;;;;;;33.80;9.47;;;16.10;99.90;;;;;;5047547;28;20629;-80
2022/09/04 02:35:33;;;;;;;21.43;8.70;;;16.10;99.90;;;;;;5046907;28;20657;-80
2022/09/04 02:38:11;;;;;;;11.83;8.20;;;16.00;99.90;;;;;;5046825;28;21050;-80
2022/09/04 02:40:49;;;;;;;24.70;8.70;;;16.10;99.90;;;;;;5046787;28;20642;-80
2022/09/04 02:43:28;;;;;;;85.70;10.87;;;16.10;99.90;;;;;;5044233;28;20637;-80
2022/09/04 02:46:04;;;;;;;22.07;7.67;;;16.10;99.90;;;;;;5046305;28;20629;-80
2022/09/04 02:48:40;;;;;;;16.10;8.10;;;16.10;99.90;;;;;;5046175;28;20633;-80
2022/09/04 02:51:20;;;;;;;21.10;7.97;;;16.10;99.90;;;;;;5046856;28;20660;-80
2022/09/04 02:53:59;;;;;;;67.90;9.83;;;16.00;99.90;;;;;;5046042;28;21191;-79
2022/09/04 02:56:39;;;;;;;28.17;8.70;;;16.10;99.90;;;;;;5045362;28;20625;-79
2022/09/04 02:59:29;;;;;;;34.50;8.43;;;16.00;99.90;;;;;;5046332;28;20669;-79
2022/09/04 03:02:00;;;;;;;82.50;10.70;;;16.10;99.90;;;;;;5047352;28;20650;-79
2022/09/04 03:04:35;;;;;;;35.67;8.17;;;16.00;99.90;;;;;;5046064;28;20665;-79
2022/09/04 03:07:10;;;;;;;7.17;6.27;;;16.00;99.90;;;;;;5045777;28;20629;-79
2022/09/04 03:09:43;;;;;;;47.67;9.10;;;16.10;99.90;;;;;;5045533;28;21167;-79
2022/09/04 03:12:29;;;;;;;40.00;8.07;;;16.00;99.90;;;;;;5046162;28;20653;-79
2022/09/04 03:15:04;;;;;;;30.27;7.83;;;16.00;99.90;;;;;;5043751;28;20689;-79
2022/09/04 03:17:43;;;;;;;37.33;7.03;;;16.00;99.90;;;;;;5046140;28;20632;-80
2022/09/04 03:20:16;;;;;;;6.63;5.83;;;15.90;99.90;;;;;;5046190;28;20661;-79
2022/09/04 03:22:48;;;;;;;15.43;6.30;;;15.90;99.90;;;;;;5047195;28;20613;-79
2022/09/04 03:25:52;;;;;;;24.77;7.20;;;15.90;99.90;;;;;;5042944;28;21182;-80
2022/09/04 03:28:29;;;;;;;5.47;5.00;;;15.90;99.90;;;;;;5043602;28;20629;-79
2022/09/04 03:30:59;;;;;;;6.60;6.10;;;15.90;99.90;;;;;;5046406;28;21215;-79
2022/09/04 03:33:32;;;;;;;10.67;6.23;;;15.90;99.90;;;;;;5046351;28;20629;-80
2022/09/04 03:36:07;;;;;;;18.20;5.90;;;15.90;99.90;;;;;;5045541;28;20629;-79
2022/09/04 03:38:41;;;;;;;9.13;5.20;;;15.90;99.90;;;;;;5045714;28;20619;-80
2022/09/04 03:41:18;;;;;;;5.13;4.63;;;15.90;99.90;;;;;;5046022;28;20645;-79
2022/09/04 03:44:04;;;;;;;5.70;4.70;;;15.90;99.90;;;;;;5042757;28;21172;-79
2022/09/04 03:46:42;;;;;;;10.07;5.17;;;15.90;99.90;;;;;;5045205;28;20646;-80
2022/09/04 03:49:20;;;;;;;11.13;5.80;;;15.90;99.90;;;;;;5046681;28;21199;-79
2022/09/04 03:52:01;;;;;;;18.07;5.37;;;15.90;99.90;;;;;;5042621;28;20649;-79
2022/09/04 03:54:45;;;;;;;73.43;9.73;;;15.80;99.90;;;;;;5044938;28;21205;-79
2022/09/04 03:57:31;;;;;;;24.03;7.03;;;15.80;99.90;;;;;;5043214;28;20613;-79
2022/09/04 04:00:08;;;;;;;151.33;12.13;;;15.80;99.90;;;;;;5043950;28;20662;-80
2022/09/04 04:02:56;;;;;;;90.33;9.87;;;15.80;99.90;;;;;;5046132;28;20657;-79
2022/09/04 04:05:36;;;;;;;119.27;10.00;;;15.70;99.90;;;;;;5043318;28;20622;-79
2022/09/04 04:08:33;;;;;;;110.63;11.10;;;15.70;99.90;;;;;;5044939;28;20602;-80
2022/09/04 04:11:11;;;;;;;94.63;8.87;;;15.70;99.90;;;;;;5028735;28;20660;-79
2022/09/04 04:14:02;;;;;;;112.23;9.73;;;15.60;99.90;;;;;;5045301;28;20629;-79
2022/09/04 04:16:43;;;;;;;78.00;8.63;;;15.70;99.90;;;;;;5041832;28;20653;-79
2022/09/04 04:19:25;;;;;;;61.30;7.87;;;15.70;99.90;;;;;;5045468;28;20661;-80
2022/09/04 04:22:16;;;;;;;95.03;8.23;;;15.60;99.90;;;;;;5043377;28;20750;-80
2022/09/04 04:25:01;;;;;;;90.33;7.60;;;15.60;99.90;;;;;;5044006;28;20632;-79
2022/09/04 04:27:41;;;;;;;26.97;5.63;;;15.60;99.90;;;;;;5048480;28;20625;-79
2022/09/04 04:30:09;;;;;;;23.47;5.40;;;15.50;99.90;;;;;;5049516;28;20648;-79
2022/09/04 04:33:08;;;;;;;22.37;5.00;;;15.50;99.90;;;;;;5049580;28;20650;-79
2022/09/04 04:35:43;;;;;;;71.43;7.93;;;15.50;99.90;;;;;;5049424;28;20630;-79
2022/09/04 04:38:27;;;;;;;8.50;5.47;;;15.50;99.90;;;;;;5050007;28;20621;-79
2022/09/04 04:41:24;;;;;;;11.23;4.67;;;15.50;99.90;;;;;;5046873;28;20681;-80
2022/09/04 04:44:03;;;;;;;7.57;5.13;;;15.50;99.90;;;;;;5047310;28;20609;-79
2022/09/04 04:46:46;;;;;;;25.63;6.17;;;15.50;99.90;;;;;;5048576;28;20983;-79
2022/09/04 04:49:30;;;;;;;34.03;5.97;;;15.50;99.90;;;;;;5047045;28;20672;-79
2022/09/04 04:52:16;;;;;;;30.07;6.03;;;15.50;99.90;;;;;;5047022;28;20740;-80
2022/09/04 04:54:58;;;;;;;15.60;5.00;;;15.50;99.90;;;;;;5048094;28;20657;-79
2022/09/04 04:57:31;;;;;;;19.70;5.97;;;15.50;99.90;;;;;;5047015;28;21164;-79
2022/09/04 05:00:07;;;;;;;23.93;6.07;;;15.50;99.90;;;;;;5047162;28;21256;-79
2022/09/04 05:02:42;;;;;;;43.50;6.63;;;15.50;99.90;;;;;;5049152;28;20680;-79
2022/09/04 05:05:14;;;;;;;31.80;6.43;;;15.40;99.90;;;;;;5048038;28;20640;-80
2022/09/04 05:07:49;;;;;;;13.83;4.90;;;15.40;99.90;;;;;;5044011;28;21342;-79
2022/09/04 05:10:23;;;;;;;9.20;5.00;;;15.40;99.90;;;;;;5045673;28;20618;-79
2022/09/04 05:12:57;;;;;;;13.00;5.30;;;15.40;99.90;;;;;;5047428;28;21217;-80
2022/09/04 05:15:28;;;;;;;6.83;5.20;;;15.40;99.90;;;;;;5045670;28;21008;-80
2022/09/04 05:18:03;;;;;;;10.63;4.47;;;15.40;99.90;;;;;;5048082;28;20626;-80
2022/09/04 05:20:41;;;;;;;8.33;4.83;;;15.40;99.90;;;;;;5047779;28;20653;-79
2022/09/04 05:23:18;;;;;;;6.40;5.10;;;15.50;99.90;;;;;;5048416;28;20625;-80
2022/09/04 05:25:52;;;;;;;4.80;4.40;;;15.50;99.90;;;;;;5048097;28;21196;-79
2022/09/04 05:28:29;;;;;;;5.40;4.67;;;15.50;99.90;;;;;;5045187;28;20628;-79
2022/09/04 05:31:07;;;;;;;5.43;4.97;;;15.50;99.90;;;;;;5047915;28;20645;-78
2022/09/04 05:33:41;;;;;;;10.27;5.07;;;15.60;99.90;;;;;;5047526;28;20642;-78
2022/09/04 05:36:17;;;;;;;6.90;4.47;;;15.60;99.90;;;;;;5046547;28;20630;-79
2022/09/04 05:38:53;;;;;;;7.07;4.70;;;15.60;99.90;;;;;;5047742;28;20628;-79
2022/09/04 05:41:34;;;;;;;5.67;5.27;;;15.60;99.90;;;;;;5047060;28;20681;-79
2022/09/04 05:44:24;;;;;;;5.57;5.17;;;15.60;99.90;;;;;;5046571;28;20739;-79
2022/09/04 05:47:03;;;;;;;5.90;5.40;;;15.70;99.90;;;;;;5044464;28;21172;-79
2022/09/04 05:49:44;;;;;;;5.77;5.37;;;15.70;99.90;;;;;;5047592;28;20633;-79
2022/09/04 05:52:38;;;;;;;5.60;5.10;;;15.80;99.90;;;;;;5048013;28;20656;-79
2022/09/04 05:55:41;;;;;;;15.40;5.97;;;15.80;99.90;;;;;;5046366;28;20650;-79
2022/09/04 05:58:34;;;;;;;6.17;5.57;;;15.80;99.90;;;;;;5046381;28;20622;-79
2022/09/04 06:01:14;;;;;;;6.97;5.97;;;15.90;99.90;;;;;;5045929;28;20685;-79
2022/09/04 06:04:01;;;;;;;8.63;5.47;;;15.90;99.90;;;;;;5043152;28;20669;-79
2022/09/04 06:06:36;;;;;;;9.70;5.70;;;15.90;99.90;;;;;;5045979;28;20640;-79
2022/09/04 06:09:21;;;;;;;7.40;6.80;;;15.90;99.90;;;;;;5047230;28;20630;-79
2022/09/04 06:12:10;;;;;;;8.67;5.90;;;16.00;99.90;;;;;;5041796;28;21235;-79
2022/09/04 06:15:03;;;;;;;8.93;5.80;;;16.00;99.90;;;;;;5044251;28;20644;-81
2022/09/04 06:17:41;;;;;;;6.13;5.73;;;16.00;99.90;;;;;;5045375;28;20691;-79
2022/09/04 06:20:28;;;;;;;8.93;5.70;;;16.10;99.90;;;;;;5047177;28;20665;-79
2022/09/04 06:23:11;;;;;;;5.53;5.03;;;16.10;99.90;;;;;;5047830;28;20622;-81
2022/09/04 06:26:01;;;;;;;8.90;6.10;;;16.10;99.90;;;;;;5055193;28;20697;-81
2022/09/04 06:29:02;;;;;;;7.00;6.50;;;16.10;99.90;;;;;;5045133;28;20641;-80
2022/09/04 06:31:48;;;;;;;8.30;6.33;;;16.20;99.90;;;;;;5003147;28;20662;-80
2022/09/04 06:34:27;;;;;;;6.10;5.50;;;16.20;99.90;;;;;;5046247;28;20625;-80
2022/09/04 06:37:09;;;;;;;7.33;6.50;;;16.30;99.90;;;;;;5031900;28;20626;-80
2022/09/04 06:40:02;;;;;;;6.50;6.00;;;16.30;99.90;;;;;;5045999;28;21182;-80
2022/09/04 06:42:43;;;;;;;9.20;6.07;;;16.40;99.90;;;;;;5046341;28;20676;-80
2022/09/04 06:45:20;;;;;;;6.77;6.17;;;16.40;99.90;;;;;;5045812;28;20614;-80
2022/09/04 06:48:00;;;;;;;6.50;6.00;;;16.50;99.90;;;;;;5043179;28;20699;-80
2022/09/04 06:50:33;;;;;;;6.63;6.13;;;16.50;99.90;;;;;;5045863;28;20703;-80
2022/09/04 06:53:18;;;;;;;7.40;6.80;;;16.60;99.90;;;;;;5046743;28;21035;-80
2022/09/04 06:55:57;;;;;;;6.10;5.60;;;16.60;99.90;;;;;;5046085;28;20699;-80
2022/09/04 06:58:44;;;;;;;7.57;6.40;;;16.70;99.90;;;;;;5044232;28;21246;-80
2022/09/04 07:01:19;;;;;;;6.73;6.13;;;16.80;99.90;;;;;;5046793;28;20688;-81
2022/09/04 07:03:58;;;;;;;6.07;5.67;;;16.90;99.90;;;;;;5041927;28;21032;-81
2022/09/04 07:06:33;;;;;;;6.10;5.70;;;16.90;99.90;;;;;;5044011;28;20626;-80
2022/09/04 07:09:13;;;;;;;6.43;6.00;;;17.00;99.90;;;;;;5046112;28;20618;-80
2022/09/04 07:12:07;;;;;;;6.80;6.30;;;17.00;99.90;;;;;;5046659;28;21264;-80
2022/09/04 07:14:50;;;;;;;6.93;6.53;;;17.10;99.90;;;;;;5043918;28;20630;-80
2022/09/04 07:17:25;;;;;;;6.47;6.07;;;17.10;99.90;;;;;;5043580;28;20638;-80
2022/09/04 07:20:17;;;;;;;5.30;4.90;;;17.20;99.90;;;;;;5041405;28;21159;-80
2022/09/04 07:23:01;;;;;;;5.83;5.33;;;17.10;99.90;;;;;;5044456;28;20641;-80
2022/09/04 07:25:39;;;;;;;5.17;4.30;;;17.20;99.90;;;;;;5044239;28;20646;-80
2022/09/04 07:28:17;;;;;;;4.87;4.47;;;17.30;99.90;;;;;;5045466;28;20713;-80
2022/09/04 07:30:52;;;;;;;4.47;4.07;;;17.40;99.90;;;;;;5043050;28;20681;-80
2022/09/04 07:33:24;;;;;;;5.00;4.60;;;17.50;99.90;;;;;;5045543;28;20714;-80
2022/09/04 07:35:58;;;;;;;3.57;3.37;;;17.60;99.90;;;;;;5047438;28;20618;-80
2022/09/04 07:38:33;;;;;;;4.40;4.10;;;17.70;99.90;;;;;;5044887;28;21319;-79
2022/09/04 07:41:08;;;;;;;4.37;4.07;;;17.70;99.90;;;;;;5042706;28;21228;-79
2022/09/04 07:43:42;;;;;;;4.70;4.17;;;17.70;99.90;;;;;;5045308;28;21010;-80
2022/09/04 07:46:16;;;;;;;4.40;4.10;;;17.80;99.90;;;;;;5044405;28;20652;-79
2022/09/04 07:48:50;;;;;;;5.27;4.77;;;18.00;99.90;;;;;;5046282;28;21087;-80
2022/09/04 07:51:24;;;;;;;5.33;4.30;;;18.10;99.90;;;;;;5041459;28;20684;-77
2022/09/04 07:54:33;;;;;;;4.10;3.80;;;18.10;99.90;;;;;;5043168;28;20728;-80
2022/09/04 07:57:21;;;;;;;5.47;3.70;;;18.10;99.90;;;;;;5024343;28;20633;-77
2022/09/04 08:00:03;;;;;;;4.23;3.87;;;18.20;99.90;;;;;;5044031;28;20788;-77
2022/09/04 08:02:46;;;;;;;4.67;4.33;;;18.30;99.90;;;;;;5049465;28;21101;-80
2022/09/04 08:05:21;;;;;;;4.30;3.90;;;18.50;99.90;;;;;;5049512;28;20637;-79
2022/09/04 08:08:10;;;;;;;3.67;3.37;;;18.40;99.90;;;;;;5046084;28;20679;-79
2022/09/04 08:10:41;;;;;;;3.40;2.93;;;18.50;99.90;;;;;;5046487;28;20668;-80
2022/09/04 08:13:32;;;;;;;3.90;3.60;;;18.50;99.90;;;;;;5049116;28;20736;-80
2022/09/04 08:16:06;;;;;;;3.50;3.20;;;18.60;99.90;;;;;;5048426;28;20721;-79
2022/09/04 08:18:52;;;;;;;3.50;3.30;;;18.80;99.90;;;;;;5047686;28;20622;-79
2022/09/04 08:21:27;;;;;;;4.33;4.03;;;18.90;99.90;;;;;;5048561;28;20679;-80
2022/09/04 08:24:21;;;;;;;4.20;3.90;;;18.90;99.90;;;;;;5049813;28;20629;-79
2022/09/04 08:27:03;;;;;;;4.00;3.80;;;19.10;99.90;;;;;;5046372;28;20626;-79
2022/09/04 08:29:49;;;;;;;4.77;4.37;;;19.20;99.90;;;;;;5047602;28;20629;-80
2022/09/04 08:32:39;;;;;;;4.00;3.70;;;19.20;99.90;;;;;;5046549;28;20652;-79
2022/09/04 08:35:17;;;;;;;4.07;3.70;;;19.30;99.90;;;;;;4996891;28;20617;-79
2022/09/04 08:37:56;;;;;;;4.63;3.23;;;19.40;99.90;;;;;;5045407;28;20621;-80
2022/09/04 08:40:49;;;;;;;3.43;3.23;;;19.40;99.90;;;;;;5048543;28;20653;-80
2022/09/04 08:43:34;;;;;;;3.27;3.07;;;19.60;99.90;;;;;;5050609;28;20630;-79
2022/09/04 08:46:47;;;;;;;3.73;3.53;;;19.80;99.90;;;;;;5048372;28;20641;-79
2022/09/04 08:49:54;;;;;;;3.10;2.80;;;19.90;99.90;;;;;;5046908;28;20586;-79
2022/09/04 08:52:54;;;;;;;3.37;3.10;;;20.00;99.90;;;;;;5045971;28;20645;-80
2022/09/04 08:55:45;;;;;;;2.90;2.70;;;20.30;99.90;;;;;;5021345;28;21212;-79
2022/09/04 08:58:39;;;;;;;6.60;2.73;;;20.30;99.90;;;;;;5048215;28;20679;-79
2022/09/04 09:01:23;;;;;;;3.03;2.27;;;20.50;99.90;;;;;;5047206;28;20800;-79
2022/09/04 09:04:19;;;;;;;2.80;2.30;;;20.60;99.90;;;;;;5045924;28;20633;-79
2022/09/04 09:07:18;;;;;;;2.40;2.20;;;20.70;99.90;;;;;;5044018;28;20628;-79
2022/09/04 09:10:10;;;;;;;2.47;2.27;;;20.90;99.90;;;;;;5047328;28;20633;-79
2022/09/04 09:13:05;;;;;;;2.40;2.20;;;20.90;99.90;;;;;;5048392;28;20654;-79
2022/09/04 09:16:03;;;;;;;2.47;1.70;;;21.00;99.90;;;;;;5044804;28;20996;-79
2022/09/04 09:18:36;;;;;;;3.70;1.87;;;21.20;99.90;;;;;;5046532;28;21001;-79
2022/09/04 09:21:08;;;;;;;2.67;1.80;;;21.30;99.90;;;;;;5048228;28;21182;-79
2022/09/04 09:23:51;;;;;;;1.60;1.50;;;21.50;99.90;;;;;;5048195;28;22081;-79
2022/09/04 09:26:27;;;;;;;2.23;2.03;;;21.70;99.90;;;;;;5045601;28;20634;-79
2022/09/04 09:29:24;;;;;;;1.97;1.87;;;21.80;99.90;;;;;;5047874;28;20648;-79
2022/09/04 09:32:34;;;;;;;5.33;2.20;;;21.90;99.90;;;;;;5050291;28;20715;-79
2022/09/04 09:35:50;;;;;;;1.57;1.47;;;22.00;99.90;;;;;;5045692;28;20663;-79
2022/09/04 09:38:47;;;;;;;3.37;2.03;;;22.20;99.90;;;;;;5047781;28;20622;-79
2022/09/04 09:41:45;;;;;;;1.70;1.60;;;22.30;99.90;;;;;;5048173;28;20731;-79
2022/09/04 09:44:49;;;;;;;2.00;1.80;;;22.40;99.90;;;;;;5046755;28;20645;-79
2022/09/04 09:47:52;;;;;;;1.80;1.47;;;22.60;99.90;;;;;;5031233;28;20638;-79
2022/09/04 09:50:46;;;;;;;3.03;1.77;;;22.60;99.90;;;;;;5047852;28;20625;-79
2022/09/04 09:54:03;;;;;;;3.60;2.53;;;22.70;99.90;;;;;;5047666;28;20630;-79
2022/09/04 09:57:09;;;;;;;1.77;1.67;;;22.90;99.90;;;;;;5043990;28;20645;-79
2022/09/04 10:00:01;;;;;;;1.53;1.43;;;23.10;99.90;;;;;;5012888;28;20637;-79
2022/09/04 10:03:13;;;;;;;1.60;1.50;;;23.30;99.90;;;;;;5046358;28;20693;-79
2022/09/04 10:06:25;;;;;;;2.90;1.87;;;23.60;99.90;;;;;;5010746;28;20679;-79
2022/09/04 10:09:20;;;;;;;1.40;1.40;;;23.90;99.90;;;;;;5044454;28;20645;-79
2022/09/04 10:12:19;;;;;;;1.50;1.40;;;24.20;99.90;;;;;;5043579;28;20641;-79
2022/09/04 10:15:13;;;;;;;1.70;1.60;;;24.40;99.90;;;;;;5043698;28;20614;-79
2022/09/04 10:18:16;;;;;;;2.20;1.73;;;24.70;99.90;;;;;;5046621;28;20728;-79
2022/09/04 10:21:13;;;;;;;1.50;1.37;;;24.80;99.90;;;;;;5039548;28;20664;-79
2022/09/04 10:24:31;;;;;;;3.10;1.67;;;25.00;99.90;;;;;;5042224;28;20637;-79
2022/09/04 10:27:23;;;;;;;1.27;1.27;;;25.20;99.90;;;;;;5044791;28;20626;-79
2022/09/04 10:30:05;;;;;;;1.40;1.30;;;25.40;99.90;;;;;;5044223;28;20630;-79
2022/09/04 10:33:04;;;;;;;2.43;1.43;;;25.60;99.90;;;;;;5046605;28;20652;-79
2022/09/04 10:35:42;;;;;;;1.63;1.53;;;25.90;99.90;;;;;;5042431;28;20669;-77
2022/09/04 10:38:27;;;;;;;1.70;1.47;;;26.20;99.90;;;;;;5046848;28;20626;-79
2022/09/04 10:41:20;;;;;;;1.60;1.50;;;26.30;99.90;;;;;;5042982;28;20685;-79
2022/09/04 10:44:17;;;;;;;1.27;1.00;;;26.50;97.30;;;;;;5034053;28;20637;-79
2022/09/04 10:46:58;;;;;;;1.33;1.23;;;26.60;94.00;;;;;;5041268;28;20645;-79
2022/09/04 10:49:46;;;;;;;1.03;0.97;;;26.80;94.30;;;;;;5046345;28;20625;-79
2022/09/04 10:52:39;;;;;;;1.73;1.10;;;27.00;95.70;;;;;;5042941;28;20649;-78
2022/09/04 10:55:30;;;;;;;1.30;1.20;;;27.20;95.40;;;;;;5032596;28;20630;-79
2022/09/04 10:58:18;;;;;;;1.63;1.43;;;27.40;94.20;;;;;;5044521;28;21044;-78
2022/09/04 11:01:03;;;;;;;2.83;2.63;;;27.80;91.00;;;;;;5041660;28;20660;-79
2022/09/04 11:04:00;;;;;;;3.10;2.80;;;28.10;90.00;;;;;;5045418;28;20633;-79
2022/09/04 11:07:07;;;;;;;2.50;2.30;;;28.20;85.30;;;;;;5044255;28;20887;-78
2022/09/04 11:09:56;;;;;;;1.40;1.30;;;28.20;83.10;;;;;;5001856;28;20634;-78
2022/09/04 11:12:47;;;;;;;1.30;1.20;;;28.00;83.20;;;;;;5044809;28;20645;-79
2022/09/04 11:15:36;;;;;;;1.93;1.23;;;27.70;86.40;;;;;;5042558;28;20642;-79
2022/09/04 11:18:36;;;;;;;1.40;1.30;;;27.60;86.70;;;;;;5032578;28;20638;-79
2022/09/04 11:21:29;;;;;;;1.07;1.07;;;27.60;88.40;;;;;;5040682;28;20669;-79
2022/09/04 11:24:46;;;;;;;1.30;1.20;;;27.30;92.70;;;;;;5044280;28;20641;-78
2022/09/04 11:27:48;;;;;;;1.93;1.43;;;27.30;89.10;;;;;;5045757;28;20935;-78
2022/09/04 11:30:19;;;;;;;2.10;1.40;;;27.30;91.80;;;;;;5044524;28;21242;-78
2022/09/04 11:33:17;;;;;;;1.40;1.30;;;27.30;90.90;;;;;;5041719;28;20637;-78
2022/09/04 11:36:10;;;;;;;1.30;1.17;;;27.30;91.70;;;;;;5044056;28;20622;-79
2022/09/04 11:39:06;;;;;;;3.27;1.50;;;27.30;92.20;;;;;;5045537;28;20621;-79
2022/09/04 11:42:07;;;;;;;1.57;1.47;;;27.30;87.90;;;;;;5046124;28;20750;-79
2022/09/04 11:44:51;;;;;;;1.97;1.73;;;27.40;86.90;;;;;;5043816;28;20654;-78
2022/09/04 11:47:44;;;;;;;6.13;2.00;;;27.50;89.80;;;;;;5046533;28;20633;-79
2022/09/04 11:50:39;;;;;;;2.47;1.93;;;27.70;88.60;;;;;;5046229;28;20625;-79
2022/09/04 11:53:59;;;;;;;1.87;1.77;;;27.60;85.00;;;;;;5044888;28;20626;-79
2022/09/04 11:56:46;;;;;;;1.70;1.60;;;27.70;84.00;;;;;;5041299;28;20645;-78
2022/09/04 11:59:42;;;;;;;1.80;1.70;;;27.40;81.40;;;;;;5044859;28;20614;-79
2022/09/04 12:02:41;;;;;;;1.77;1.67;;;27.20;80.80;;;;;;5045238;28;20688;-79
2022/09/04 12:05:38;;;;;;;1.67;1.67;;;27.20;77.70;;;;;;5041534;28;20674;-79
2022/09/04 12:08:24;;;;;;;3.00;1.90;;;27.20;74.80;;;;;;5045557;28;20645;-79
2022/09/04 12:11:05;;;;;;;1.97;1.87;;;27.10;76.60;;;;;;5042620;28;20646;-79
2022/09/04 12:13:57;;;;;;;1.57;1.47;;;27.00;75.70;;;;;;5049300;28;20614;-78
2022/09/04 12:16:46;;;;;;;2.30;1.87;;;27.40;76.30;;;;;;5043192;28;20626;-78
2022/09/04 12:19:53;;;;;;;2.07;1.97;;;28.00;71.90;;;;;;5044328;28;21031;-78
2022/09/04 12:23:01;;;;;;;2.90;2.07;;;28.80;68.30;;;;;;5044000;28;20662;-78
2022/09/04 12:25:59;;;;;;;0.90;0.90;;;29.40;66.60;;;;;;5041469;28;21141;-79
2022/09/04 12:29:06;;;;;;;2.97;1.20;;;29.40;63.90;;;;;;5044068;28;20637;-79
2022/09/04 12:31:58;;;;;;;1.23;1.13;;;29.20;64.50;;;;;;5022082;28;20663;-79
2022/09/04 12:34:45;;;;;;;1.23;1.13;;;28.90;64.70;;;;;;5006347;28;20677;-79
2022/09/04 12:37:46;;;;;;;1.97;1.10;;;28.60;64.20;;;;;;5045649;28;20633;-79
2022/09/04 12:40:31;;;;;;;1.30;0.97;;;28.50;68.20;;;;;;5045336;28;20639;-79
2022/09/04 12:43:19;;;;;;;2.50;2.30;;;28.30;65.70;;;;;;5045347;28;20663;-79
2022/09/04 12:45:54;;;;;;;1.50;1.40;;;28.20;67.90;;;;;;5042201;28;20641;-79
2022/09/04 12:48:34;;;;;;;1.10;1.10;;;28.10;67.60;;;;;;5047213;28;20629;-79
2022/09/04 12:51:10;;;;;;;1.10;1.10;;;28.10;68.10;;;;;;5048096;28;20768;-79
2022/09/04 12:54:03;;;;;;;2.00;1.40;;;28.30;68.30;;;;;;5047397;28;20629;-79
2022/09/04 12:56:42;;;;;;;1.20;1.10;;;28.80;66.20;;;;;;5045001;28;20650;-79
2022/09/04 12:59:30;;;;;;;1.27;1.17;;;29.50;63.50;;;;;;5048279;28;20705;-79
2022/09/04 13:02:04;;;;;;;1.30;1.20;;;30.00;60.60;;;;;;5047202;28;20680;-79
2022/09/04 13:04:42;;;;;;;1.70;1.23;;;30.00;59.50;;;;;;5046387;28;20637;-77
2022/09/04 13:07:25;;;;;;;2.23;1.43;;;30.00;58.80;;;;;;5045331;28;20635;-79
2022/09/04 13:10:02;;;;;;;1.70;1.40;;;30.30;58.50;;;;;;5046668;28;20620;-79
2022/09/04 13:12:38;;;;;;;1.40;1.30;;;30.80;57.30;;;;;;5047272;28;20652;-80
2022/09/04 13:15:23;;;;;;;1.63;1.00;;;31.00;56.40;;;;;;5044917;28;20771;-79
2022/09/04 13:18:05;;;;;;;2.73;1.13;;;31.00;56.30;;;;;;5046711;28;20617;-79
2022/09/04 13:20:39;;;;;;;1.90;1.37;;;31.40;55.50;;;;;;5047471;28;20586;-79
2022/09/04 13:23:19;;;;;;;1.30;1.10;;;31.90;54.80;;;;;;5047605;28;20671;-79
2022/09/04 13:26:04;;;;;;;1.70;1.60;;;32.40;53.00;;;;;;5043801;28;20651;-79
2022/09/04 13:28:44;;;;;;;1.83;1.73;;;32.90;52.60;;;;;;5047221;28;20633;-79
2022/09/04 13:31:39;;;;;;;4.40;1.30;;;33.70;51.40;;;;;;5046997;28;20745;-80
2022/09/04 13:34:17;;;;;;;1.43;1.20;;;34.20;49.00;;;;;;5049720;28;20631;-80
2022/09/04 13:36:52;;;;;;;1.57;1.47;;;34.80;48.00;;;;;;5043530;28;20613;-80
2022/09/04 13:39:44;;;;;;;1.10;1.00;;;35.20;47.50;;;;;;5045251;28;20621;-80
2022/09/04 13:42:41;;;;;;;1.37;1.27;;;35.60;47.10;;;;;;5047480;28;20764;-80
2022/09/04 13:45:11;;;;;;;1.33;1.23;;;36.10;45.40;;;;;;5046863;28;20195;-80
2022/09/04 13:47:53;;;;;;;1.55;1.10;;;36.10;43.90;;;;;;5046256;28;20195;-80
2022/09/04 13:50:24;;;;;;;1.25;1.05;;;36.10;42.70;;;;;;5045303;28;20258;-80
2022/09/04 13:52:58;;;;;;;1.35;1.25;;;36.50;42.10;;;;;;5047511;28;21025;-80
2022/09/04 13:55:27;;;;;;;1.15;0.98;;;36.50;41.00;;;;;;5045381;28;20204;-80
2022/09/04 13:58:00;;;;;;;1.30;1.05;;;36.80;40.40;;;;;;5046089;28;20207;-80
2022/09/04 14:00:30;;;;;;;1.17;1.02;;;37.00;39.30;;;;;;5046020;28;20210;-80
2022/09/04 14:03:03;;;;;;;1.85;1.10;;;36.80;38.80;;;;;;5001738;28;1206416;-80
2022/09/04 14:05:33;;;;;;;1.80;1.20;;;36.90;38.60;;;;;;5046627;28;20205;-78
2022/09/04 14:08:04;;;;;;;1.30;1.20;;;37.00;38.10;;;;;;5046597;28;20199;-80
2022/09/04 14:10:58;;;;;;;1.98;1.23;;;37.20;37.90;;;;;;5048407;28;20218;-80